Time;durP1;ratioP1;P1;durP2;ratioP2;P2;SDS_P1;SDS_P2;PMS_P1;PMS_P2;Temp;Humidity;BMP_temperature;BMP_pressure;BME280_temperature;BME280_humidity;BME280_pressure;Samples;Min_cycle;Max_cycle;Signal;HPM_P1;HPM_P2
2021/05/20 00:01:06;;;;;;;0.13;0.13;;;;;;;12.05;49.47;98898.19;5075505;28;20089;-59
2021/05/20 00:03:32;;;;;;;0.10;0.10;;;;;;;12.15;49.51;98894.81;5075957;28;20032;-59
2021/05/20 00:05:58;;;;;;;0.35;0.35;;;;;;;12.28;49.10;98900.06;5057477;28;20045;-60
2021/05/20 00:08:25;;;;;;;0.10;0.10;;;;;;;12.38;49.12;98889.25;5075862;28;20054;-59
2021/05/20 00:10:50;;;;;;;0.20;0.20;;;;;;;12.53;48.91;98901.63;5075881;28;20056;-61
2021/05/20 00:13:16;;;;;;;0.10;0.10;;;;;;;12.68;48.59;98901.94;5075717;28;20028;-59
2021/05/20 00:15:42;;;;;;;0.15;0.15;;;;;;;13.00;48.32;98906.94;5075261;28;20086;-60
2021/05/20 00:18:08;;;;;;;0.28;0.28;;;;;;;13.96;46.42;98894.94;5075775;28;20102;-60
2021/05/20 00:20:34;;;;;;;0.20;0.20;;;;;;;15.44;43.64;98905.09;5075130;28;20054;-59
2021/05/20 00:23:00;;;;;;;0.10;0.10;;;;;;;16.94;41.02;98906.75;5073821;28;20025;-59
2021/05/20 00:25:26;;;;;;;0.10;0.10;;;;;;;18.15;39.27;98897.81;5075615;28;20028;-58
2021/05/20 00:27:51;;;;;;;0.30;0.30;;;;;;;19.17;38.04;98917.91;5075618;28;20036;-60
2021/05/20 00:30:17;;;;;;;0.20;0.20;;;;;;;20.16;37.03;98910.34;5073631;28;20032;-60
2021/05/20 00:32:43;;;;;;;0.65;0.17;;;;;;;21.15;35.89;98919.13;5073696;28;20028;-59
2021/05/20 00:35:09;;;;;;;0.10;0.10;;;;;;;22.04;35.16;98918.22;5074989;28;20039;-60
2021/05/20 00:37:35;;;;;;;0.13;0.13;;;;;;;22.88;34.43;98910.66;5075037;28;20029;-60
2021/05/20 00:40:01;;;;;;;0.10;0.10;;;;;;;23.67;33.68;98911.34;5074015;28;20037;-60
2021/05/20 00:42:27;;;;;;;0.22;0.20;;;;;;;24.43;33.53;98906.81;5074075;28;20461;-60
2021/05/20 00:45:01;;;;;;;0.10;0.10;;;;;;;25.25;32.48;98911.94;5074507;28;20028;-60
2021/05/20 00:47:30;;;;;;;0.22;0.22;;;;;;;25.84;32.41;98917.06;5073349;28;20025;-59
2021/05/20 00:49:56;;;;;;;1.85;0.20;;;;;;;26.50;31.70;98913.88;5074786;28;20394;-58
2021/05/20 00:52:24;;;;;;;0.10;0.10;;;;;;;27.14;31.62;98909.19;5074857;28;20020;-61
2021/05/20 00:54:51;;;;;;;0.10;0.10;;;;;;;27.76;31.13;98910.31;5075081;28;20398;-61
2021/05/20 00:57:19;;;;;;;0.10;0.10;;;;;;;28.32;30.72;98914.69;5073189;28;20493;-61
2021/05/20 00:59:45;;;;;;;0.10;0.10;;;;;;;28.63;30.66;98916.16;5074937;28;20033;-61
2021/05/20 01:02:12;;;;;;;0.10;0.10;;;;;;;28.93;30.51;98913.91;5073042;28;20036;-61
2021/05/20 01:04:38;;;;;;;0.30;0.30;;;;;;;29.27;30.41;98920.22;5074872;28;20035;-61
2021/05/20 01:07:05;;;;;;;0.00;0.00;;;;;;;29.58;30.22;98915.88;5074276;28;20048;-62
2021/05/20 01:09:35;;;;;;;0.10;0.10;;;;;;;29.94;30.02;98921.75;5074575;28;20048;-62
2021/05/20 01:12:05;;;;;;;0.10;0.10;;;;;;;30.29;29.61;98915.41;5074451;28;20079;-62
2021/05/20 01:14:42;;;;;;;0.10;0.10;;;;;;;30.72;29.70;98911.66;5056441;28;20116;-62
2021/05/20 01:17:08;;;;;;;0.10;0.10;;;;;;;31.17;29.04;98914.31;5056287;28;20466;-63
2021/05/20 01:19:41;;;;;;;0.03;0.03;;;;;;;31.71;28.74;98916.31;5056091;28;20033;-62
2021/05/20 01:22:07;;;;;;;0.10;0.10;;;;;;;32.24;28.19;98918.56;5056438;28;20040;-64
2021/05/20 01:24:34;;;;;;;0.10;0.10;;;;;;;32.69;27.90;98918.13;5075757;28;20064;-61
2021/05/20 01:27:02;;;;;;;0.00;0.00;;;;;;;33.09;27.64;98916.72;5074674;28;20029;-62
2021/05/20 01:29:28;;;;;;;0.10;0.10;;;;;;;33.52;27.55;98923.84;5074326;28;20028;-64
2021/05/20 01:31:54;;;;;;;0.00;0.00;;;;;;;33.99;27.13;98926.44;5074349;28;20032;-62
2021/05/20 01:34:19;;;;;;;0.00;0.00;;;;;;;34.39;26.52;98927.66;5073980;28;20032;-61
2021/05/20 01:36:45;;;;;;;0.77;0.30;;;;;;;34.69;26.38;98926.72;5074077;28;20474;-60
2021/05/20 01:39:11;;;;;;;0.10;0.10;;;;;;;34.94;26.34;98920.41;5074164;28;20025;-61
2021/05/20 01:41:37;;;;;;;0.10;0.10;;;;;;;35.33;26.46;98917.00;5073985;28;20032;-61
2021/05/20 01:44:03;;;;;;;0.10;0.10;;;;;;;35.65;26.18;98924.91;5073799;28;20147;-59
2021/05/20 01:46:28;;;;;;;0.00;0.00;;;;;;;35.10;26.56;98929.47;5073614;28;20140;-59
2021/05/20 01:48:55;;;;;;;0.10;0.10;;;;;;;35.11;26.43;98922.56;5073606;28;20108;-63
2021/05/20 01:51:22;;;;;;;0.10;0.10;;;;;;;35.33;26.77;98917.00;5073248;28;20520;-60
2021/05/20 01:53:51;;;;;;;0.00;0.00;;;;;;;35.44;26.74;98915.03;5071474;28;20032;-61
2021/05/20 01:56:21;;;;;;;0.10;0.10;;;;;;;35.68;26.62;98916.34;5069757;28;20394;-62
2021/05/20 01:58:48;;;;;;;0.10;0.10;;;;;;;36.19;26.06;98917.31;5052498;28;20116;-63
2021/05/20 02:01:14;;;;;;;0.00;0.00;;;;;;;36.74;25.51;98916.13;5066874;28;20473;-58
2021/05/20 02:03:40;;;;;;;0.10;0.10;;;;;;;37.33;24.80;98921.41;5070102;28;20107;-61
2021/05/20 02:06:07;;;;;;;0.00;0.00;;;;;;;37.90;24.29;98913.00;5070006;28;20024;-60
2021/05/20 02:08:34;;;;;;;0.10;0.10;;;;;;;38.31;23.94;98918.06;5071578;28;20029;-61
2021/05/20 02:11:02;;;;;;;0.30;0.30;;;;;;;38.56;23.78;98912.13;5071027;28;20037;-59
2021/05/20 02:13:28;;;;;;;0.10;0.10;;;;;;;38.69;23.76;98913.31;5071464;28;20028;-60
2021/05/20 02:15:54;;;;;;;0.15;0.15;;;;;;;38.83;23.88;98914.41;5071532;28;20028;-61
2021/05/20 02:18:21;;;;;;;1.30;0.40;;;;;;;38.90;24.09;98906.53;5071318;28;20037;-60
2021/05/20 02:20:47;;;;;;;0.10;0.10;;;;;;;38.80;24.08;98909.53;5070812;28;20024;-60
2021/05/20 02:23:14;;;;;;;0.10;0.10;;;;;;;38.56;24.06;98904.38;5053596;28;20053;-60
2021/05/20 02:25:40;;;;;;;0.10;0.10;;;;;;;38.35;24.75;98910.28;5071143;28;20251;-61
2021/05/20 02:28:07;;;;;;;0.10;0.10;;;;;;;38.10;25.09;98899.75;5067126;28;20032;-59
2021/05/20 02:30:33;;;;;;;0.08;0.08;;;;;;;37.78;25.10;98897.94;5063265;28;20028;-62
2021/05/20 02:32:59;;;;;;;0.10;0.10;;;;;;;37.57;25.19;98890.19;5052664;28;20048;-60
2021/05/20 02:35:25;;;;;;;0.10;0.10;;;;;;;37.49;25.38;98894.34;5034678;28;20641;-59
2021/05/20 02:37:51;;;;;;;0.43;0.43;;;;;;;37.51;25.10;98895.53;5052689;28;20067;-60
2021/05/20 02:40:18;;;;;;;0.20;0.20;;;;;;;37.55;25.21;98886.16;5052871;28;20028;-60
2021/05/20 02:42:45;;;;;;;0.32;0.32;;;;;;;37.68;25.02;98890.97;5052963;28;20041;-61
2021/05/20 02:45:22;;;;;;;0.20;0.20;;;;;;;38.08;24.43;98892.84;5052711;28;20119;-61
2021/05/20 02:47:49;;;;;;;0.05;0.05;;;;;;;38.60;23.96;98894.91;5052640;28;20087;-61
2021/05/20 02:50:16;;;;;;;0.10;0.10;;;;;;;39.19;23.40;98894.78;5052421;28;20044;-60
2021/05/20 02:52:46;;;;;;;0.10;0.10;;;;;;;39.62;23.15;98890.56;5052517;28;20063;-60
2021/05/20 02:55:23;;;;;;;0.10;0.10;;;;;;;40.06;22.67;98883.03;5052188;28;20036;-60
2021/05/20 02:57:55;;;;;;;0.10;0.10;;;;;;;40.51;22.35;98881.13;5052447;28;20045;-60
2021/05/20 03:00:21;;;;;;;0.10;0.10;;;;;;;40.96;22.07;98887.31;5052971;28;20098;-61
2021/05/20 03:02:50;;;;;;;0.20;0.20;;;;;;;41.21;21.87;98885.19;5034376;28;20375;-61
2021/05/20 03:05:17;;;;;;;0.10;0.10;;;;;;;41.41;21.73;98886.03;5052555;28;20111;-60
2021/05/20 03:07:43;;;;;;;0.10;0.10;;;;;;;41.65;21.38;98900.34;5052405;28;20067;-60
2021/05/20 03:10:09;;;;;;;0.10;0.10;;;;;;;41.99;21.23;98885.63;5055404;28;20032;-60
2021/05/20 03:12:35;;;;;;;0.10;0.10;;;;;;;41.94;21.31;98896.88;5038403;28;20025;-60
2021/05/20 03:15:02;;;;;;;0.10;0.10;;;;;;;41.59;21.62;98893.47;5056088;28;20025;-60
2021/05/20 03:17:28;;;;;;;0.10;0.10;;;;;;;41.77;21.51;98888.19;5056507;28;20033;-61
2021/05/20 03:19:53;;;;;;;0.10;0.10;;;;;;;41.33;21.99;98890.31;5056161;28;20036;-59
2021/05/20 03:22:21;;;;;;;0.10;0.10;;;;;;;40.87;22.42;98886.22;5056659;28;20028;-59
2021/05/20 03:24:49;;;;;;;0.10;0.10;;;;;;;40.86;22.36;98884.59;5056262;28;20050;-59
2021/05/20 03:27:14;;;;;;;0.10;0.10;;;;;;;41.29;21.98;98893.25;5056747;28;20386;-59
2021/05/20 03:29:40;;;;;;;0.10;0.10;;;;;;;41.87;21.58;98891.25;5056394;28;20029;-60
2021/05/20 03:32:06;;;;;;;0.10;0.10;;;;;;;42.10;21.19;98888.22;5056434;28;20051;-61
2021/05/20 03:34:32;;;;;;;0.10;0.10;;;;;;;42.39;20.97;98892.53;5055840;28;20114;-60
2021/05/20 03:36:58;;;;;;;0.10;0.10;;;;;;;42.70;20.95;98884.34;5055801;28;20033;-61
2021/05/20 03:39:24;;;;;;;0.10;0.10;;;;;;;42.95;20.51;98885.72;5055751;28;20324;-60
2021/05/20 03:41:49;;;;;;;0.25;0.25;;;;;;;43.12;20.48;98892.31;5056386;28;20032;-60
2021/05/20 03:44:15;;;;;;;0.10;0.10;;;;;;;43.41;20.15;98887.31;5055999;28;20033;-59
2021/05/20 03:46:41;;;;;;;0.10;0.10;;;;;;;43.77;19.88;98891.25;5055927;28;20469;-61
2021/05/20 03:49:06;;;;;;;0.20;0.20;;;;;;;43.82;20.25;98875.41;5055867;28;20032;-59
2021/05/20 03:51:32;;;;;;;0.20;0.20;;;;;;;43.67;20.33;98883.72;5056036;28;20029;-60
2021/05/20 03:53:58;;;;;;;0.10;0.10;;;;;;;43.35;20.78;98880.50;5055589;28;20486;-61
2021/05/20 03:56:24;;;;;;;0.10;0.10;;;;;;;43.32;20.31;98881.41;5055569;28;20025;-60
2021/05/20 03:58:49;;;;;;;0.10;0.10;;;;;;;43.47;20.50;98878.13;5037535;28;20041;-61
2021/05/20 04:01:15;;;;;;;0.10;0.10;;;;;;;43.53;20.39;98877.09;5055519;28;20044;-61
2021/05/20 04:03:41;;;;;;;0.10;0.10;;;;;;;43.70;20.22;98874.94;5055290;28;20060;-61
2021/05/20 04:06:07;;;;;;;0.10;0.10;;;;;;;43.85;20.40;98863.75;5055353;28;20060;-60
2021/05/20 04:08:37;;;;;;;0.10;0.10;;;;;;;44.16;19.85;98860.28;5055264;28;20409;-60
2021/05/20 04:11:03;;;;;;;0.10;0.10;;;;;;;44.40;19.44;98854.16;5037293;28;20035;-59
2021/05/20 04:13:40;;;;;;;0.10;0.10;;;;;;;44.66;19.27;98851.22;5055717;28;20067;-60
2021/05/20 04:16:08;;;;;;;0.10;0.10;;;;;;;44.60;19.23;98854.69;5055282;28;20037;-62
2021/05/20 04:18:34;;;;;;;0.10;0.10;;;;;;;44.69;19.69;98851.09;5055191;28;20111;-60
2021/05/20 04:21:01;;;;;;;0.10;0.10;;;;;;;44.92;19.17;98864.34;5055274;28;20028;-61
2021/05/20 04:23:27;;;;;;;0.10;0.10;;;;;;;45.26;19.40;98851.13;5055070;28;20035;-60
2021/05/20 04:25:53;;;;;;;0.10;0.10;;;;;;;45.63;19.12;98844.75;5054877;28;20031;-60
2021/05/20 04:28:19;;;;;;;0.30;0.30;;;;;;;45.88;18.42;98846.72;5055020;28;20401;-60
2021/05/20 04:30:46;;;;;;;0.30;0.30;;;;;;;46.25;18.49;98841.06;5055288;28;20033;-60
2021/05/20 04:33:12;;;;;;;0.10;0.10;;;;;;;46.60;18.51;98837.94;5055284;28;20037;-60
2021/05/20 04:35:38;;;;;;;0.10;0.10;;;;;;;46.64;18.41;98838.56;5055186;28;20394;-59
2021/05/20 04:38:05;;;;;;;0.17;0.17;;;;;;;46.87;17.89;98824.72;5055101;28;20033;-61
2021/05/20 04:40:33;;;;;;;0.17;0.17;;;;;;;46.62;18.00;98828.75;5054519;28;20405;-61
2021/05/20 04:42:59;;;;;;;0.10;0.10;;;;;;;46.21;18.75;98828.78;5055197;28;20025;-60
2021/05/20 04:45:25;;;;;;;0.30;0.30;;;;;;;46.01;18.66;98829.19;5054798;28;20042;-60
2021/05/20 04:47:50;;;;;;;0.28;0.28;;;;;;;45.87;18.90;98838.50;5037380;28;20453;-60
2021/05/20 04:50:17;;;;;;;0.22;0.22;;;;;;;45.72;18.97;98820.81;5054706;28;20039;-60
2021/05/20 04:52:44;;;;;;;0.10;0.10;;;;;;;45.42;19.07;98818.22;5036478;28;20119;-60
2021/05/20 04:55:11;;;;;;;0.10;0.10;;;;;;;45.15;19.05;98813.03;5037139;28;20074;-59
2021/05/20 04:57:38;;;;;;;0.10;0.10;;;;;;;44.94;19.40;98826.22;5054292;28;20033;-59
2021/05/20 05:00:09;;;;;;;0.10;0.10;;;;;;;44.95;19.02;98811.28;5036342;28;20116;-60
2021/05/20 05:02:34;;;;;;;0.10;0.10;;;;;;;45.01;18.93;98822.25;5036268;28;20039;-61
2021/05/20 05:05:01;;;;;;;0.28;0.28;;;;;;;44.82;18.97;98822.09;5036292;28;20437;-61
2021/05/20 05:07:27;;;;;;;0.10;0.10;;;;;;;44.60;19.31;98819.16;5053834;28;20064;-60
2021/05/20 05:09:53;;;;;;;0.55;0.45;;;;;;;44.67;19.30;98823.88;5054050;28;20037;-60
2021/05/20 05:12:18;;;;;;;0.28;0.28;;;;;;;44.70;19.06;98811.38;5054322;28;20036;-60
2021/05/20 05:14:44;;;;;;;0.10;0.10;;;;;;;44.70;18.64;98817.16;5054254;28;20033;-60
2021/05/20 05:17:10;;;;;;;0.10;0.10;;;;;;;44.87;18.77;98806.22;5053869;28;20021;-61
2021/05/20 05:19:36;;;;;;;0.10;0.10;;;;;;;44.88;18.65;98805.75;5035838;28;20056;-60
2021/05/20 05:22:04;;;;;;;0.10;0.10;;;;;;;44.56;18.72;98806.88;5053785;28;20057;-60
2021/05/20 05:24:30;;;;;;;0.10;0.10;;;;;;;44.66;18.59;98799.94;5035842;28;20494;-59
2021/05/20 05:26:56;;;;;;;0.10;0.10;;;;;;;45.03;18.37;98808.13;5053833;28;20029;-59
2021/05/20 05:29:22;;;;;;;0.10;0.10;;;;;;;45.04;18.17;98801.03;5054187;28;20040;-60
2021/05/20 05:31:48;;;;;;;0.20;0.20;;;;;;;44.46;18.69;98803.06;5053455;28;20083;-60
2021/05/20 05:34:15;;;;;;;0.10;0.10;;;;;;;43.33;19.79;98802.13;5053609;28;20029;-60
2021/05/20 05:36:42;;;;;;;0.13;0.13;;;;;;;41.29;21.33;98794.50;5035561;28;20410;-60
2021/05/20 05:39:07;;;;;;;0.20;0.20;;;;;;;39.07;23.44;98801.34;5054151;28;20033;-60
2021/05/20 05:41:34;;;;;;;0.60;0.60;;;;;;;37.13;25.06;98797.13;5053471;28;20035;-59
2021/05/20 05:43:59;;;;;;;0.10;0.10;;;;;;;35.47;26.28;98791.47;5053387;28;20060;-59
2021/05/20 05:46:25;;;;;;;0.10;0.10;;;;;;;34.42;26.86;98801.47;5035826;28;20036;-59
2021/05/20 05:48:52;;;;;;;0.28;0.10;;;;;;;33.33;27.44;98804.47;5035361;28;20029;-59
2021/05/20 05:51:20;;;;;;;0.00;0.00;;;;;;;32.53;27.74;98796.84;5053208;28;20040;-59
2021/05/20 05:53:46;;;;;;;0.10;0.10;;;;;;;32.00;28.06;98808.97;5053081;28;20091;-58
2021/05/20 05:56:12;;;;;;;0.10;0.10;;;;;;;31.65;27.77;98797.78;5053548;28;20444;-59
2021/05/20 05:58:38;;;;;;;0.00;0.00;;;;;;;31.09;27.72;98794.25;5035349;28;20581;-60
2021/05/20 06:01:04;;;;;;;0.45;0.25;;;;;;;30.53;27.90;98801.09;5053711;28;20124;-59
2021/05/20 06:03:33;;;;;;;0.00;0.00;;;;;;;30.04;27.91;98796.66;5053617;28;20103;-59
2021/05/20 06:05:59;;;;;;;0.20;0.20;;;;;;;29.77;27.79;98801.16;5053033;28;20025;-59
2021/05/20 06:08:25;;;;;;;0.10;0.10;;;;;;;29.56;27.69;98802.25;5035229;28;20478;-60
2021/05/20 06:10:51;;;;;;;0.10;0.10;;;;;;;29.35;27.27;98794.81;5035137;28;20090;-59
2021/05/20 06:13:17;;;;;;;0.03;0.03;;;;;;;29.21;27.48;98794.41;5053439;28;20119;-60
2021/05/20 06:15:43;;;;;;;0.00;0.00;;;;;;;28.96;27.12;98796.47;5052864;28;20025;-60
2021/05/20 06:18:09;;;;;;;0.22;0.22;;;;;;;28.70;27.24;98791.28;5053032;28;20406;-58
2021/05/20 06:20:35;;;;;;;0.17;0.17;;;;;;;28.59;26.88;98791.75;5052827;28;20025;-60
2021/05/20 06:23:01;;;;;;;0.10;0.10;;;;;;;28.50;26.87;98796.66;5053022;28;20128;-59
2021/05/20 06:25:27;;;;;;;0.10;0.10;;;;;;;28.29;27.08;98794.00;5053217;28;20067;-60
2021/05/20 06:27:53;;;;;;;0.43;0.10;;;;;;;28.16;26.66;98793.16;5052914;28;20036;-59
2021/05/20 06:30:19;;;;;;;0.00;0.00;;;;;;;28.10;26.52;98786.13;5053156;28;20078;-60
2021/05/20 06:32:45;;;;;;;0.10;0.10;;;;;;;28.06;26.50;98788.00;5034739;28;20033;-60
2021/05/20 06:35:11;;;;;;;0.10;0.10;;;;;;;28.09;26.58;98784.47;5052762;28;20029;-59
2021/05/20 06:37:37;;;;;;;0.10;0.10;;;;;;;28.10;26.38;98780.47;5052798;28;20037;-60
2021/05/20 06:40:05;;;;;;;0.20;0.20;;;;;;;28.14;25.95;98772.97;5053055;28;20516;-58
2021/05/20 06:42:32;;;;;;;0.00;0.00;;;;;;;28.13;25.89;98774.13;5052410;28;20506;-59
2021/05/20 06:44:58;;;;;;;0.05;0.05;;;;;;;28.09;26.15;98771.19;5051891;28;20029;-59
2021/05/20 06:47:24;;;;;;;0.15;0.15;;;;;;;27.99;26.10;98770.81;5052426;28;20112;-59
2021/05/20 06:49:50;;;;;;;0.00;0.00;;;;;;;28.01;26.14;98765.66;5052364;28;20033;-60
2021/05/20 06:52:16;;;;;;;0.00;0.00;;;;;;;27.96;25.59;98759.06;5052277;28;20029;-59
2021/05/20 06:54:42;;;;;;;0.08;0.08;;;;;;;27.78;25.75;98757.63;5070559;28;20038;-60
2021/05/20 06:57:19;;;;;;;0.05;0.05;;;;;;;27.55;26.33;98772.16;5053504;28;20036;-60
2021/05/20 06:59:58;;;;;;;0.00;0.00;;;;;;;27.37;26.38;98765.06;5062835;28;20135;-59
2021/05/20 07:02:29;;;;;;;0.10;0.10;;;;;;;27.25;26.49;98754.53;5051922;28;20039;-60
2021/05/20 07:04:56;;;;;;;0.10;0.10;;;;;;;27.22;26.00;98756.09;5070274;28;20111;-60
2021/05/20 07:07:22;;;;;;;0.10;0.10;;;;;;;27.22;26.11;98758.91;5066575;28;20052;-58
2021/05/20 07:09:49;;;;;;;0.10;0.10;;;;;;;27.17;26.38;98753.47;5069027;28;20024;-59
2021/05/20 07:12:16;;;;;;;0.00;0.00;;;;;;;27.09;26.21;98757.19;5069683;28;20119;-59
2021/05/20 07:14:45;;;;;;;0.75;0.47;;;;;;;27.03;25.99;98750.13;5080906;28;20052;-59
2021/05/20 07:17:12;;;;;;;0.10;0.10;;;;;;;26.99;26.15;98746.38;5074063;28;20053;-59
2021/05/20 07:19:38;;;;;;;0.20;0.20;;;;;;;26.88;26.44;98746.81;5069365;28;20045;-60
2021/05/20 07:22:04;;;;;;;0.10;0.10;;;;;;;26.72;26.12;98740.97;5079969;28;20584;-59
2021/05/20 07:24:31;;;;;;;0.10;0.10;;;;;;;26.68;26.59;98744.84;5049480;28;20111;-61
2021/05/20 07:26:57;;;;;;;0.10;0.10;;;;;;;26.63;26.50;98753.44;5064905;28;20119;-59
2021/05/20 07:29:23;;;;;;;0.10;0.10;;;;;;;26.50;26.22;98744.94;5074426;28;20035;-59
2021/05/20 07:31:50;;;;;;;0.00;0.00;;;;;;;26.40;26.16;98731.25;5071768;28;20354;-59
2021/05/20 07:34:16;;;;;;;0.30;0.30;;;;;;;26.29;26.56;98730.81;5084878;28;20040;-59
2021/05/20 07:36:41;;;;;;;0.10;0.10;;;;;;;26.26;26.76;98733.50;5070024;28;20500;-60
2021/05/20 07:39:08;;;;;;;0.20;0.20;;;;;;;26.05;26.81;98723.88;5077935;28;20127;-58
2021/05/20 07:41:34;;;;;;;0.10;0.10;;;;;;;25.85;26.89;98731.09;5070376;28;20032;-60
2021/05/20 07:44:01;;;;;;;0.10;0.10;;;;;;;25.62;26.99;98722.09;5073880;28;20036;-59
2021/05/20 07:46:28;;;;;;;0.10;0.10;;;;;;;25.43;27.44;98721.69;5088607;28;20078;-60
2021/05/20 07:48:54;;;;;;;0.00;0.00;;;;;;;25.28;27.50;98720.19;5051429;28;20036;-59
2021/05/20 07:51:20;;;;;;;0.20;0.20;;;;;;;25.10;27.77;98728.69;5072964;28;20159;-59
2021/05/20 07:53:46;;;;;;;0.10;0.10;;;;;;;24.92;27.78;98727.84;5069189;28;20029;-60
2021/05/20 07:56:12;;;;;;;0.05;0.05;;;;;;;24.83;27.54;98725.06;5071538;28;20040;-60
2021/05/20 07:58:38;;;;;;;0.20;0.20;;;;;;;24.71;27.87;98719.31;5057375;28;20119;-58
2021/05/20 08:01:04;;;;;;;0.13;0.13;;;;;;;24.64;27.71;98721.78;5084200;28;20069;-60
2021/05/20 08:03:40;;;;;;;0.00;0.00;;;;;;;24.59;27.91;98716.34;5077449;28;20035;-59
2021/05/20 08:06:13;;;;;;;0.08;0.08;;;;;;;24.58;27.64;98732.31;5072776;28;20032;-59
2021/05/20 08:11:23;;;;;;;0.10;0.10;;;;;;;24.45;27.57;98722.06;5092575;28;20085;-54
2021/05/20 08:13:49;;;;;;;0.10;0.10;;;;;;;24.42;27.80;98719.94;5094542;28;20028;-60
2021/05/20 08:16:15;;;;;;;0.10;0.10;;;;;;;24.41;27.51;98721.91;5094808;28;20558;-59
2021/05/20 08:18:41;;;;;;;1.88;0.17;;;;;;;24.43;27.70;98715.97;5095045;28;20039;-60
2021/05/20 08:21:08;;;;;;;0.00;0.00;;;;;;;24.39;27.38;98715.78;5094547;28;20074;-52
2021/05/20 08:23:34;;;;;;;0.00;0.00;;;;;;;24.41;27.51;98710.69;5094546;28;20085;-48
2021/05/20 08:26:02;;;;;;;0.00;0.00;;;;;;;24.51;27.73;98717.13;5095470;28;20028;-48
2021/05/20 08:28:28;;;;;;;0.00;0.00;;;;;;;24.55;27.63;98712.50;5095075;28;20521;-49
2021/05/20 08:30:54;;;;;;;0.08;0.08;;;;;;;24.58;27.37;98706.22;5095152;28;20054;-55
2021/05/20 08:33:20;;;;;;;0.10;0.10;;;;;;;24.57;27.46;98704.56;5095541;28;20028;-57
2021/05/20 08:35:46;;;;;;;0.00;0.00;;;;;;;24.55;27.30;98706.91;5076671;28;20062;-59
2021/05/20 08:38:14;;;;;;;0.43;0.20;;;;;;;24.50;27.53;98705.09;5091278;28;20496;-59
2021/05/20 08:40:41;;;;;;;0.17;0.17;;;;;;;24.46;27.48;98698.47;5093920;28;20036;-50
2021/05/20 08:43:07;;;;;;;0.10;0.10;;;;;;;24.38;27.56;98700.13;5083837;28;20029;-52
2021/05/20 08:45:33;;;;;;;0.00;0.00;;;;;;;24.31;27.76;98703.41;5052265;28;20036;-56
2021/05/20 08:48:00;;;;;;;0.00;0.00;;;;;;;24.27;27.88;98698.78;5045625;28;20056;-56
2021/05/20 08:50:29;;;;;;;0.10;0.10;;;;;;;24.21;27.86;98692.50;5072112;28;20067;-59
2021/05/20 08:52:56;;;;;;;0.10;0.10;;;;;;;24.18;27.88;98695.16;5066538;28;20025;-56
2021/05/20 08:55:31;;;;;;;0.10;0.10;;;;;;;24.13;28.11;98694.16;5063801;28;20029;-58
2021/05/20 08:57:59;;;;;;;0.00;0.00;;;;;;;24.09;27.69;98683.94;5065754;28;20030;-61
2021/05/20 09:00:27;;;;;;;0.10;0.10;;;;;;;24.12;27.88;98683.28;5059169;28;20051;-59
2021/05/20 09:03:06;;;;;;;0.00;0.00;;;;;;;24.13;27.90;98685.75;5064860;28;20032;-61
2021/05/20 09:05:32;;;;;;;0.10;0.10;;;;;;;24.13;27.70;98674.53;5067542;28;20028;-60
2021/05/20 09:08:01;;;;;;;0.00;0.00;;;;;;;24.13;27.80;98685.75;5048353;28;20078;-60
2021/05/20 09:10:30;;;;;;;0.00;0.00;;;;;;;24.18;27.80;98675.53;5071268;28;20501;-59
2021/05/20 09:13:04;;;;;;;0.00;0.00;;;;;;;24.18;27.77;98670.72;5070936;28;20024;-59
2021/05/20 09:15:39;;;;;;;0.10;0.10;;;;;;;24.22;27.86;98665.28;5066749;28;20041;-59
2021/05/20 09:18:15;;;;;;;0.10;0.10;;;;;;;24.27;27.62;98665.13;5065853;28;20043;-60
2021/05/20 09:20:44;;;;;;;0.10;0.10;;;;;;;24.32;27.81;98659.34;5067720;28;20077;-59
2021/05/20 09:23:16;;;;;;;0.00;0.00;;;;;;;24.34;27.25;98657.03;5070820;28;20594;-59
2021/05/20 09:25:44;;;;;;;0.03;0.03;;;;;;;24.37;27.44;98656.38;5067286;28;20390;-60
2021/05/20 09:28:10;;;;;;;0.38;0.20;;;;;;;24.38;27.42;98652.44;5066939;28;20425;-60
2021/05/20 09:30:41;;;;;;;0.00;0.00;;;;;;;24.37;27.57;98662.00;5064189;28;20047;-60
2021/05/20 09:33:10;;;;;;;0.00;0.00;;;;;;;24.31;27.75;98654.91;5068265;28;20039;-55
2021/05/20 09:35:42;;;;;;;0.85;0.25;;;;;;;24.25;27.57;98661.84;5066615;28;20032;-54
2021/05/20 09:38:17;;;;;;;0.10;0.10;;;;;;;24.24;27.70;98654.56;5063388;28;20137;-60
2021/05/20 09:40:46;;;;;;;0.03;0.03;;;;;;;24.24;27.55;98654.56;5068374;28;20476;-60
2021/05/20 09:43:18;;;;;;;0.00;0.00;;;;;;;24.26;27.49;98650.28;5068139;28;20028;-49
2021/05/20 09:45:46;;;;;;;0.00;0.00;;;;;;;24.27;27.86;98648.28;5067855;28;20489;-49
2021/05/20 09:48:13;;;;;;;0.00;0.00;;;;;;;24.31;27.51;98657.72;5069692;28;20020;-60
2021/05/20 09:50:42;;;;;;;0.10;0.10;;;;;;;24.33;27.75;98646.97;5065372;28;20108;-49
2021/05/20 09:53:16;;;;;;;0.10;0.10;;;;;;;24.33;27.75;98643.34;5064802;28;20142;-59
2021/05/20 09:55:53;;;;;;;0.10;0.10;;;;;;;24.33;27.53;98641.34;5062800;28;20052;-57
2021/05/20 09:58:26;;;;;;;0.00;0.00;;;;;;;24.34;27.74;98639.38;5067553;28;20036;-60
2021/05/20 10:00:53;;;;;;;0.00;0.00;;;;;;;24.29;27.76;98635.59;5067011;28;20122;-60
2021/05/20 10:03:21;;;;;;;0.00;0.00;;;;;;;24.26;27.86;98636.25;5067688;28;20500;-58
2021/05/20 10:05:59;;;;;;;0.10;0.10;;;;;;;24.22;27.62;98634.41;5067503;28;20405;-60
2021/05/20 10:08:29;;;;;;;0.00;0.00;;;;;;;24.15;28.11;98637.72;5024232;28;20041;-58
2021/05/20 10:10:57;;;;;;;0.00;0.00;;;;;;;24.08;27.69;98632.59;5044410;28;20559;-58
2021/05/20 10:13:25;;;;;;;0.05;0.05;;;;;;;24.10;28.01;98629.47;5048149;28;20032;-61
2021/05/20 10:15:52;;;;;;;0.00;0.00;;;;;;;24.10;28.03;98626.66;5050925;28;20128;-54
2021/05/20 10:18:22;;;;;;;0.00;0.00;;;;;;;24.13;27.98;98623.19;5046279;28;20033;-60
2021/05/20 10:20:50;;;;;;;0.20;0.20;;;;;;;24.13;27.70;98624.03;5042448;28;20029;-55
2021/05/20 10:23:19;;;;;;;0.10;0.10;;;;;;;24.20;27.72;98628.31;5024864;28;20033;-60
2021/05/20 10:25:46;;;;;;;0.00;0.00;;;;;;;24.24;27.65;98618.09;5027590;28;20480;-51
2021/05/20 10:28:14;;;;;;;0.15;0.10;;;;;;;24.29;27.59;98617.91;5050118;28;20401;-59
2021/05/20 10:30:42;;;;;;;0.10;0.10;;;;;;;24.36;27.40;98609.00;5049829;28;20484;-61
2021/05/20 10:33:09;;;;;;;0.00;0.00;;;;;;;24.40;27.69;98612.81;5031320;28;20025;-59
2021/05/20 10:35:48;;;;;;;0.10;0.10;;;;;;;24.45;27.58;98599.41;5031716;28;20033;-55
2021/05/20 10:38:26;;;;;;;0.00;0.00;;;;;;;24.47;27.52;98605.53;5049196;28;20041;-57
2021/05/20 10:41:18;;;;;;;0.00;0.00;;;;;;;24.49;27.30;98608.00;5049436;28;20119;-59
2021/05/20 10:43:47;;;;;;;0.05;0.05;;;;;;;24.53;27.40;98600.56;5049331;28;20025;-54
2021/05/20 10:46:17;;;;;;;0.05;0.05;;;;;;;24.55;27.56;98595.44;5048991;28;20107;-54
2021/05/20 10:48:54;;;;;;;0.10;0.10;;;;;;;24.55;27.51;98594.63;5048935;28;20025;-59
2021/05/20 10:51:22;;;;;;;0.00;0.00;;;;;;;24.58;27.49;98593.97;5049604;28;20036;-59
2021/05/20 10:54:06;;;;;;;0.22;0.22;;;;;;;24.58;27.52;98602.38;5044107;28;20031;-60
2021/05/20 10:56:32;;;;;;;0.17;0.17;;;;;;;24.60;27.51;98597.28;5049146;28;20056;-58
2021/05/20 10:58:59;;;;;;;0.15;0.15;;;;;;;24.61;27.19;98591.31;5050785;28;20043;-56
2021/05/20 11:01:26;;;;;;;0.00;0.00;;;;;;;24.64;27.31;98599.06;5050621;28;20052;-58
2021/05/20 11:03:55;;;;;;;0.10;0.10;;;;;;;24.64;27.13;98581.41;5043574;28;20033;-58
2021/05/20 11:06:41;;;;;;;0.05;0.05;;;;;;;24.69;27.27;98589.69;5049555;28;20075;-50
2021/05/20 11:09:11;;;;;;;0.10;0.10;;;;;;;24.70;27.53;98579.25;5063677;28;20032;-59
2021/05/20 11:11:37;;;;;;;0.10;0.10;;;;;;;24.73;27.25;98589.81;5068335;28;20123;-59
2021/05/20 11:14:27;;;;;;;0.10;0.10;;;;;;;24.74;27.32;98581.06;5070516;28;20517;-59
2021/05/20 11:16:54;;;;;;;0.30;0.20;;;;;;;24.75;27.10;98588.34;5069884;28;20037;-60
2021/05/20 11:19:23;;;;;;;0.10;0.10;;;;;;;24.76;26.99;98587.16;5064639;28;20082;-59
2021/05/20 11:22:12;;;;;;;0.00;0.00;;;;;;;24.75;26.88;98585.53;5070416;28;20456;-49
2021/05/20 11:24:42;;;;;;;0.10;0.10;;;;;;;24.73;26.84;98576.59;5069828;28;20036;-58
2021/05/20 11:27:25;;;;;;;0.20;0.20;;;;;;;24.75;26.88;98581.88;5070923;28;20418;-56
2021/05/20 11:29:51;;;;;;;0.00;0.00;;;;;;;24.74;26.95;98574.63;5069890;28;20024;-55
2021/05/20 11:37:22;;;;;;;0.00;0.00;;;;;;;24.77;26.79;98573.97;5069362;28;20028;-55
2021/05/20 11:39:48;;;;;;;0.10;0.10;;;;;;;24.77;26.79;98579.56;5071384;28;20037;-59
2021/05/20 11:42:26;;;;;;;0.38;0.30;;;;;;;24.80;27.00;98562.06;5074108;28;20498;-59
2021/05/20 11:44:54;;;;;;;0.10;0.10;;;;;;;24.82;26.86;98571.78;5073980;28;20078;-59